createdAt,value
2023-05-05T00:00:19.592Z,464.6923
2023-05-05T00:01:20.669Z,466.7692
2023-05-05T00:02:21.739Z,464.8462
2023-05-05T00:03:22.900Z,461.0769
2023-05-05T00:04:23.694Z,458.7692
2023-05-05T00:05:24.762Z,457.1538
2023-05-05T00:06:25.784Z,456.0769
2023-05-05T00:07:26.836Z,452.4615
2023-05-05T00:08:27.851Z,452.5385
2023-05-05T00:09:28.942Z,452.4615
2023-05-05T00:10:29.967Z,452.0000
2023-05-05T00:11:30.974Z,454.0769
2023-05-05T00:12:32.032Z,456.3077
2023-05-05T00:13:32.996Z,458.6923
2023-05-05T00:14:34.033Z,460.9231
2023-05-05T00:15:35.091Z,464.5385
2023-05-05T00:16:36.185Z,462.6923
2023-05-05T00:17:37.201Z,463.3846
2023-05-05T00:18:38.166Z,465.1538
2023-05-05T00:19:39.233Z,465.2308
2023-05-05T00:20:40.240Z,464.3077
2023-05-05T00:21:41.312Z,465.3077
2023-05-05T00:22:42.329Z,465.6154
2023-05-05T00:23:43.376Z,467.5385
2023-05-05T00:24:44.408Z,466.7692
2023-05-05T00:25:45.456Z,466.6154
2023-05-05T00:26:46.469Z,465.9231
2023-05-05T00:27:47.529Z,464.6154
2023-05-05T00:28:48.504Z,465.4615
2023-05-05T00:29:49.567Z,463.5385
2023-05-05T00:30:50.608Z,463.8462
2023-05-05T00:31:51.632Z,464.4615
2023-05-05T00:32:52.690Z,463.6923
2023-05-05T00:33:53.732Z,464.1538
2023-05-05T00:34:54.716Z,466.0769
2023-05-05T00:35:55.812Z,465.3846
2023-05-05T00:36:56.798Z,464.3077
2023-05-05T00:37:57.873Z,461.0769
2023-05-05T00:38:58.925Z,459.3077
2023-05-05T00:39:59.936Z,461.0000
2023-05-05T00:41:00.912Z,459.1538
2023-05-05T00:42:01.995Z,458.4615
2023-05-05T00:43:03.011Z,455.5385
2023-05-05T00:44:04.082Z,455.9231
2023-05-05T00:45:05.055Z,457.2308
2023-05-05T00:46:06.137Z,458.6154
2023-05-05T00:47:07.126Z,458.7692
2023-05-05T00:48:08.224Z,459.4615
2023-05-05T00:49:09.237Z,459.9231
2023-05-05T00:50:10.270Z,458.5385
2023-05-05T00:51:11.276Z,457.4615
2023-05-05T00:52:21.587Z,456.8182
2023-05-05T00:53:22.954Z,456.0714
2023-05-05T00:54:23.998Z,454.6923
2023-05-05T00:55:24.896Z,456.1538
2023-05-05T00:56:25.967Z,457.5385
2023-05-05T00:57:26.978Z,458.3077
2023-05-05T00:58:28.132Z,456.2308
2023-05-05T00:59:29.096Z,457.1538
2023-05-05T01:00:30.109Z,456.3077
2023-05-05T01:01:31.183Z,458.0769
2023-05-05T01:02:32.276Z,457.0000
2023-05-05T01:03:33.432Z,459.3077
2023-05-05T01:04:34.297Z,460.6923
2023-05-05T01:05:35.309Z,459.9231
2023-05-05T01:06:36.316Z,458.6923
2023-05-05T01:07:37.390Z,457.0769
2023-05-05T01:08:38.421Z,458.6923
2023-05-05T01:09:39.471Z,459.0769
2023-05-05T01:10:40.601Z,461.2308
2023-05-05T01:11:41.630Z,465.0000
2023-05-05T01:12:42.652Z,465.0000
2023-05-05T01:13:43.693Z,462.4615
2023-05-05T01:14:44.734Z,458.9231
2023-05-05T01:15:45.711Z,460.1538
2023-05-05T01:16:46.755Z,459.0000
2023-05-05T01:17:47.813Z,456.7692
2023-05-05T01:18:48.879Z,457.0000
2023-05-05T01:19:49.926Z,456.2308
2023-05-05T01:20:50.900Z,456.2308
2023-05-05T01:21:51.953Z,455.3077
2023-05-05T01:22:52.953Z,455.4615
2023-05-05T01:23:54.013Z,452.3846
2023-05-05T01:24:55.175Z,451.1538
2023-05-05T01:25:56.109Z,452.0769
2023-05-05T01:26:57.148Z,451.5385
2023-05-05T01:27:58.135Z,452.3077
2023-05-05T01:28:59.274Z,453.9231
2023-05-05T01:30:00.257Z,453.5385
2023-05-05T01:31:01.333Z,453.3077
2023-05-05T01:32:02.328Z,453.1538
2023-05-05T01:33:03.313Z,454.7692
2023-05-05T01:34:04.418Z,454.1538
2023-05-05T01:35:05.417Z,454.4615
2023-05-05T01:36:06.433Z,455.4615
2023-05-05T01:37:07.521Z,458.6923
2023-05-05T01:38:08.493Z,460.0000
2023-05-05T01:39:09.614Z,460.3846
2023-05-05T01:40:10.617Z,459.8462
2023-05-05T01:41:11.611Z,460.5385
2023-05-05T01:42:12.610Z,460.5385
2023-05-05T01:43:13.694Z,458.0769
2023-05-05T01:44:14.774Z,458.6154
2023-05-05T01:45:15.849Z,459.1538
2023-05-05T01:46:16.867Z,458.2308
2023-05-05T01:47:17.819Z,457.6923
2023-05-05T01:48:18.882Z,458.2308
2023-05-05T01:49:19.995Z,457.8462
2023-05-05T01:50:21.002Z,456.8462
2023-05-05T01:51:21.973Z,457.1538
2023-05-05T01:52:23.026Z,458.5385
2023-05-05T01:53:24.018Z,458.6154
2023-05-05T01:54:25.131Z,459.5385
2023-05-05T01:55:26.172Z,460.3077
2023-05-05T01:56:27.223Z,458.1538
2023-05-05T01:57:28.179Z,456.1538
2023-05-05T01:58:29.224Z,453.3846
2023-05-05T01:59:30.302Z,455.0769
2023-05-05T02:00:31.400Z,455.6154
2023-05-05T02:01:32.323Z,454.2308
2023-05-05T02:02:33.413Z,453.9231
2023-05-05T02:03:34.404Z,454.0769
2023-05-05T02:04:35.463Z,457.0769
2023-05-05T02:05:36.490Z,461.0769
2023-05-05T02:06:37.491Z,458.6154
2023-05-05T02:07:38.550Z,458.0769
2023-05-05T02:08:39.579Z,458.1538
2023-05-05T02:09:40.677Z,457.5385
2023-05-05T02:10:41.706Z,458.4615
2023-05-05T02:11:42.665Z,459.2308
2023-05-05T02:12:43.720Z,458.9231
2023-05-05T02:13:44.893Z,455.5385
2023-05-05T02:14:45.909Z,454.0769
2023-05-05T02:15:46.959Z,455.4615
2023-05-05T02:16:47.868Z,455.6923
2023-05-05T02:17:48.928Z,454.8462
2023-05-05T02:18:49.953Z,453.3846
2023-05-05T02:19:51.035Z,454.4615
2023-05-05T02:20:52.080Z,453.6923
2023-05-05T02:21:53.073Z,454.0769
2023-05-05T02:22:54.132Z,454.3846
2023-05-05T02:23:55.115Z,455.8462
2023-05-05T02:24:56.233Z,455.4615
2023-05-05T02:25:57.233Z,454.6923
2023-05-05T02:26:58.219Z,456.0769
2023-05-05T02:27:59.295Z,453.6923
2023-05-05T02:29:00.298Z,453.4615
2023-05-05T02:30:01.400Z,451.8462
2023-05-05T02:31:02.466Z,451.1538
2023-05-05T02:32:03.338Z,450.5385
2023-05-05T02:33:04.513Z,450.3077
2023-05-05T02:34:05.473Z,449.8462
2023-05-05T02:35:06.620Z,450.6154
2023-05-05T02:36:07.623Z,449.3077
2023-05-05T02:37:08.573Z,447.7692
2023-05-05T02:38:09.627Z,448.0769
2023-05-05T02:39:10.660Z,450.3846
2023-05-05T02:40:11.786Z,448.6923
2023-05-05T02:41:12.797Z,450.4615
2023-05-05T02:42:13.793Z,452.2308
2023-05-05T02:43:14.823Z,451.8462
2023-05-05T02:44:15.841Z,452.0000
2023-05-05T02:45:16.914Z,451.7692
2023-05-05T02:46:18.011Z,450.4615
2023-05-05T02:47:18.949Z,448.8462
2023-05-05T02:48:20.080Z,453.0769
2023-05-05T02:49:21.016Z,454.6154
2023-05-05T02:50:22.185Z,455.9231
2023-05-05T02:51:23.131Z,456.0000
2023-05-05T02:52:24.218Z,455.1538
2023-05-05T02:53:25.135Z,455.6923
2023-05-05T02:54:26.233Z,456.2308
2023-05-05T02:55:27.276Z,454.0000
2023-05-05T02:56:28.354Z,454.6923
2023-05-05T02:57:29.309Z,458.3846
2023-05-05T02:58:30.351Z,457.1538
2023-05-05T02:59:31.373Z,458.1538
2023-05-05T03:00:32.456Z,457.1538
2023-05-05T03:01:33.525Z,457.5385
2023-05-05T03:02:34.518Z,459.7692
2023-05-05T03:03:35.609Z,462.8462
2023-05-05T03:04:36.566Z,463.8462
2023-05-05T03:05:37.692Z,463.7692
2023-05-05T03:06:38.654Z,463.1538
2023-05-05T03:07:39.653Z,461.3846
2023-05-05T03:08:40.774Z,460.1538
2023-05-05T03:09:41.712Z,463.1538
2023-05-05T03:10:42.815Z,463.3077
2023-05-05T03:11:43.867Z,462.5385
2023-05-05T03:12:44.895Z,462.3077
2023-05-05T03:13:45.914Z,462.4615
2023-05-05T03:14:46.898Z,459.0769
2023-05-05T03:15:47.996Z,459.1538
2023-05-05T03:16:49.015Z,462.1538
2023-05-05T03:17:50.021Z,463.6923
2023-05-05T03:18:51.102Z,463.0769
2023-05-05T03:19:52.080Z,462.8462
2023-05-05T03:20:53.134Z,461.6154
2023-05-05T03:21:54.275Z,462.0769
2023-05-05T03:22:55.241Z,462.3846
2023-05-05T03:23:56.293Z,462.6154
2023-05-05T03:24:57.295Z,460.6154
2023-05-05T03:25:58.336Z,459.8462
2023-05-05T03:26:59.378Z,462.1538
2023-05-05T03:28:00.352Z,462.2308
2023-05-05T03:29:01.370Z,461.3077
2023-05-05T03:30:02.448Z,462.3077
2023-05-05T03:31:03.495Z,460.3846
2023-05-05T03:32:04.656Z,460.0000
2023-05-05T03:33:05.565Z,460.0769
2023-05-05T03:34:06.575Z,459.6923
2023-05-05T03:35:07.587Z,459.4615
2023-05-05T03:36:08.675Z,460.3846
2023-05-05T03:37:09.782Z,461.0769
2023-05-05T03:38:10.771Z,461.6154
2023-05-05T03:39:11.741Z,462.3846
2023-05-05T03:40:12.783Z,463.4615
2023-05-05T03:41:13.851Z,463.9231
2023-05-05T03:42:14.931Z,464.8462
2023-05-05T03:43:15.848Z,465.9231
2023-05-05T03:44:16.953Z,464.6923
2023-05-05T03:45:17.991Z,463.3077
2023-05-05T03:46:19.139Z,463.8462
2023-05-05T03:47:20.081Z,463.3846
2023-05-05T03:48:21.033Z,463.3077
2023-05-05T03:49:22.063Z,462.0000
2023-05-05T03:50:23.185Z,462.5385
2023-05-05T03:51:24.172Z,463.4615
2023-05-05T03:52:25.208Z,464.1538
2023-05-05T03:53:26.172Z,464.2308
2023-05-05T03:54:27.230Z,465.8462
2023-05-05T03:55:28.337Z,465.4615
2023-05-05T03:56:29.428Z,464.9231
2023-05-05T03:57:30.431Z,464.3846
2023-05-05T03:58:31.391Z,460.9231
2023-05-05T03:59:32.443Z,466.8462
2023-05-05T04:00:33.453Z,470.6154
2023-05-05T04:01:34.537Z,472.8462
2023-05-05T04:02:35.627Z,475.3846
2023-05-05T04:03:36.657Z,476.6154
2023-05-05T04:04:37.618Z,478.6923
2023-05-05T04:05:38.628Z,477.6923
2023-05-05T04:06:39.757Z,476.9231
2023-05-05T04:07:40.739Z,479.4615
2023-05-05T04:08:41.790Z,481.0769
2023-05-05T04:09:42.793Z,479.4615
2023-05-05T04:10:43.836Z,476.7692
2023-05-05T04:11:44.947Z,474.0000
2023-05-05T04:12:46.003Z,473.0000
2023-05-05T04:13:46.959Z,475.0000
2023-05-05T04:14:48.000Z,477.7692
2023-05-05T04:15:49.050Z,480.3077
2023-05-05T04:16:50.097Z,483.5385
2023-05-05T04:17:51.194Z,484.6154
2023-05-05T04:18:52.157Z,484.8462
2023-05-05T04:19:53.137Z,483.6923
2023-05-05T04:20:54.219Z,486.4615
2023-05-05T04:21:55.281Z,487.3077
2023-05-05T04:22:56.389Z,487.6154
2023-05-05T04:23:57.287Z,486.5385
2023-05-05T04:24:58.353Z,484.4615
2023-05-05T04:25:59.353Z,482.3077
2023-05-05T04:27:00.505Z,480.3077
2023-05-05T04:28:01.605Z,479.1538
2023-05-05T04:29:02.526Z,479.3846
2023-05-05T04:30:03.515Z,480.8462
2023-05-05T04:31:04.563Z,480.2308
2023-05-05T04:32:05.651Z,479.1538
2023-05-05T04:33:06.674Z,475.0000
2023-05-05T04:34:07.672Z,473.7692
2023-05-05T04:35:08.684Z,472.6923
2023-05-05T04:36:09.735Z,473.6923
2023-05-05T04:37:10.853Z,475.3846
2023-05-05T04:38:11.870Z,475.1538
2023-05-05T04:39:12.837Z,473.9231
2023-05-05T04:40:13.902Z,475.5385
2023-05-05T04:41:14.939Z,477.9231
2023-05-05T04:42:15.995Z,481.4615
2023-05-05T04:43:17.007Z,487.3846
2023-05-05T04:44:17.976Z,488.4615
2023-05-05T04:45:19.072Z,488.4615
2023-05-05T04:46:20.200Z,488.4615
2023-05-05T04:47:21.172Z,486.0000
2023-05-05T04:48:22.194Z,485.7692
2023-05-05T04:49:23.201Z,488.6154
2023-05-05T04:50:24.205Z,488.8462
2023-05-05T04:51:25.248Z,491.5385
2023-05-05T04:52:26.334Z,491.6923
2023-05-05T04:53:27.401Z,492.4615
2023-05-05T04:54:28.407Z,492.8462
2023-05-05T04:55:29.399Z,494.3077
2023-05-05T04:56:30.447Z,498.4615
2023-05-05T04:57:31.518Z,497.0769
2023-05-05T04:58:32.562Z,495.3077
2023-05-05T04:59:33.558Z,498.5385
2023-05-05T05:00:34.622Z,511.0000
2023-05-05T05:01:37.730Z,517.6923
2023-05-05T05:02:36.727Z,517.9231
2023-05-05T05:03:39.156Z,512.0769
2023-05-05T05:04:38.765Z,506.5385
2023-05-05T05:05:39.757Z,502.1538
2023-05-05T05:06:40.797Z,496.1538
2023-05-05T05:07:41.878Z,493.3846
2023-05-05T05:08:42.910Z,491.3846
2023-05-05T05:09:43.956Z,489.1538
2023-05-05T05:10:44.999Z,488.0000
2023-05-05T05:11:46.030Z,486.3846
2023-05-05T05:12:47.032Z,485.8462
2023-05-05T05:13:48.062Z,487.2308
2023-05-05T05:14:49.067Z,491.6154
2023-05-05T05:15:50.107Z,493.5385
2023-05-05T05:16:51.225Z,495.5385
2023-05-05T05:17:52.181Z,499.0000
2023-05-05T05:18:53.213Z,499.0000
2023-05-05T05:19:54.245Z,495.1538
2023-05-05T05:20:55.245Z,492.9231
2023-05-05T05:21:56.289Z,492.1538
2023-05-05T05:22:57.373Z,489.2308
2023-05-05T05:23:58.402Z,488.7692
2023-05-05T05:24:59.408Z,487.1538
2023-05-05T05:26:00.421Z,487.1538
2023-05-05T05:27:01.452Z,486.2308
2023-05-05T05:28:10.164Z,488.5385
2023-05-05T05:29:03.630Z,489.6923
2023-05-05T05:30:04.592Z,492.2308
2023-05-05T05:31:05.606Z,495.3077
2023-05-05T05:32:06.814Z,497.5385
2023-05-05T05:33:07.855Z,499.5385
2023-05-05T05:34:09.767Z,500.2308
2023-05-05T05:35:09.769Z,499.3077
2023-05-05T05:36:10.803Z,501.7692
2023-05-05T05:37:11.843Z,501.8462
2023-05-05T05:38:12.918Z,503.9231
2023-05-05T05:39:14.104Z,512.0000
2023-05-05T05:40:14.945Z,510.1538
2023-05-05T05:41:15.963Z,508.6154
2023-05-05T05:42:17.018Z,509.3846
2023-05-05T05:43:18.055Z,511.0000
2023-05-05T05:44:19.194Z,513.6154
2023-05-05T05:45:20.115Z,512.3846
2023-05-05T05:46:21.217Z,512.6154
2023-05-05T05:47:22.182Z,511.9231
2023-05-05T05:48:23.270Z,511.0000
2023-05-05T05:49:24.338Z,506.9231
2023-05-05T05:50:25.323Z,503.8462
2023-05-05T05:51:26.322Z,503.4615
2023-05-05T05:52:27.383Z,505.3846
2023-05-05T05:53:28.430Z,507.5385
2023-05-05T05:54:29.443Z,503.7692
2023-05-05T05:55:30.513Z,504.6923
2023-05-05T05:56:31.533Z,505.4615
2023-05-05T05:57:32.563Z,500.1538
2023-05-05T05:58:33.587Z,496.6923
2023-05-05T05:59:34.658Z,497.6923
2023-05-05T06:00:35.616Z,499.0000
2023-05-05T06:01:36.694Z,498.7692
2023-05-05T06:02:37.791Z,498.0000
2023-05-05T06:03:38.869Z,498.2308
2023-05-05T06:04:39.880Z,500.2308
2023-05-05T06:05:40.844Z,501.7692
2023-05-05T06:06:41.824Z,500.3846
2023-05-05T06:07:42.927Z,500.0000
2023-05-05T06:08:43.950Z,499.0769
2023-05-05T06:09:44.984Z,499.1538
2023-05-05T06:10:46.001Z,497.0000
2023-05-05T06:11:47.036Z,496.3846
2023-05-05T06:12:48.084Z,499.0000
2023-05-05T06:13:49.083Z,496.7692
2023-05-05T06:14:50.154Z,496.3846
2023-05-05T06:15:51.240Z,494.6923
2023-05-05T06:16:52.228Z,494.9231
2023-05-05T06:17:53.311Z,494.9231
2023-05-05T06:18:54.284Z,498.9231
2023-05-05T06:19:55.354Z,501.3846
2023-05-05T06:20:56.361Z,501.2308
2023-05-05T06:21:57.419Z,496.0769
2023-05-05T06:22:58.452Z,496.0769
2023-05-05T06:23:59.475Z,494.0000
2023-05-05T06:25:00.502Z,488.2308
2023-05-05T06:26:01.604Z,484.6923
2023-05-05T06:27:02.600Z,480.6154
2023-05-05T06:28:03.611Z,478.6923
2023-05-05T06:29:04.614Z,474.5385
2023-05-05T06:30:05.937Z,472.3846
2023-05-05T06:31:06.747Z,469.9231
2023-05-05T06:32:07.784Z,471.5385
2023-05-05T06:33:08.820Z,469.0769
2023-05-05T06:34:09.782Z,470.6154
2023-05-05T06:35:10.854Z,471.8462
2023-05-05T06:36:11.916Z,473.8462
2023-05-05T06:37:12.923Z,474.6154
2023-05-05T06:38:14.148Z,469.5385
2023-05-05T06:39:16.169Z,470.0769
2023-05-05T06:40:16.125Z,470.2308
2023-05-05T06:41:17.148Z,468.7692
2023-05-05T06:42:18.230Z,470.8462
2023-05-05T06:43:19.265Z,471.0000
2023-05-05T06:44:20.302Z,468.0000
2023-05-05T06:45:21.287Z,464.8462
2023-05-05T06:46:22.407Z,463.0769
2023-05-05T06:47:23.404Z,466.1538
2023-05-05T06:48:24.447Z,469.9231
2023-05-05T06:49:25.464Z,474.6154
2023-05-05T06:50:26.463Z,478.4615
2023-05-05T06:51:27.502Z,479.3077
2023-05-05T06:52:28.614Z,479.2308
2023-05-05T06:53:29.576Z,479.4615
2023-05-05T06:54:30.593Z,478.2308
2023-05-05T06:55:31.731Z,475.8462
2023-05-05T06:56:32.701Z,478.3077
2023-05-05T06:57:33.746Z,478.3846
2023-05-05T06:58:34.841Z,477.3077
2023-05-05T06:59:35.791Z,475.1538
2023-05-05T07:00:36.894Z,475.2308
2023-05-05T07:01:37.858Z,469.1538
2023-05-05T07:02:39.055Z,467.0000
2023-05-05T07:03:40.020Z,468.3077
2023-05-05T07:04:41.096Z,467.3846
2023-05-05T07:05:42.007Z,468.2308
2023-05-05T07:06:43.140Z,468.8462
2023-05-05T07:07:44.114Z,469.5385
2023-05-05T07:08:45.226Z,469.6154
2023-05-05T07:09:46.195Z,468.7692
2023-05-05T07:10:47.328Z,469.5385
2023-05-05T07:11:48.268Z,469.0000
2023-05-05T07:12:49.387Z,468.6154
2023-05-05T07:13:50.371Z,467.3077
2023-05-05T07:14:51.417Z,463.8462
2023-05-05T07:15:52.390Z,456.0769
2023-05-05T07:16:53.590Z,453.0769
2023-05-05T07:17:54.547Z,452.0000
2023-05-05T07:18:55.538Z,455.0000
2023-05-05T07:19:56.579Z,455.0769
2023-05-05T07:20:57.542Z,456.2308
2023-05-05T07:21:58.596Z,457.1538
2023-05-05T07:22:59.621Z,457.0000
2023-05-05T07:24:00.714Z,459.8462
2023-05-05T07:25:01.707Z,463.6154
2023-05-05T07:26:02.850Z,461.2308
2023-05-05T07:27:03.740Z,462.4615
2023-05-05T07:28:04.841Z,462.0769
2023-05-05T07:29:05.873Z,457.0000
2023-05-05T07:30:11.211Z,458.1538
2023-05-05T07:31:07.889Z,459.6923
2023-05-05T07:32:09.024Z,466.6923
2023-05-05T07:33:10.087Z,462.8462
2023-05-05T07:34:11.058Z,456.7692
2023-05-05T07:35:12.127Z,457.8462
2023-05-05T07:36:13.151Z,460.6923
2023-05-05T07:37:14.106Z,458.8462
2023-05-05T07:38:15.165Z,455.5385
2023-05-05T07:39:16.223Z,456.3077
2023-05-05T07:40:17.279Z,456.6154
2023-05-05T07:41:18.299Z,456.3077
2023-05-05T07:42:19.316Z,454.7692
2023-05-05T07:43:20.318Z,451.9231
2023-05-05T07:44:21.459Z,449.4615
2023-05-05T07:45:22.424Z,444.4615
2023-05-05T07:46:23.467Z,442.3077
2023-05-05T07:47:24.542Z,443.0000
2023-05-05T07:48:25.566Z,444.6154
2023-05-05T07:49:26.569Z,441.6154
2023-05-05T07:50:27.627Z,433.6154
2023-05-05T07:51:28.594Z,438.1538
2023-05-05T07:52:44.223Z,440.2308
2023-05-05T07:53:30.666Z,441.3846
2023-05-05T07:54:31.799Z,442.6154
2023-05-05T07:55:32.752Z,442.6923
2023-05-05T07:56:33.856Z,440.6154
2023-05-05T07:57:34.796Z,439.0769
2023-05-05T07:58:35.865Z,438.9231
2023-05-05T07:59:36.914Z,438.3846
2023-05-05T08:00:37.981Z,441.1538
2023-05-05T08:01:38.930Z,439.5385
2023-05-05T08:02:40.067Z,446.5385
2023-05-05T08:03:41.076Z,447.1538
2023-05-05T08:04:42.306Z,446.9231
2023-05-05T08:05:43.187Z,448.8462
2023-05-05T08:06:44.194Z,449.1538
2023-05-05T08:07:45.189Z,447.6154
2023-05-05T08:08:46.166Z,445.9231
2023-05-05T08:09:47.285Z,441.2308
2023-05-05T08:10:48.318Z,442.4615
2023-05-05T08:11:49.365Z,441.7692
2023-05-05T08:12:50.322Z,443.0769
2023-05-05T08:13:51.447Z,443.0769
2023-05-05T08:14:52.418Z,438.5385
2023-05-05T08:15:53.542Z,433.0769
2023-05-05T08:16:54.472Z,441.3846
2023-05-05T08:17:55.582Z,438.8462
2023-05-05T08:18:56.539Z,434.9231
2023-05-05T08:19:57.620Z,437.1538
2023-05-05T08:20:58.652Z,439.9231
2023-05-05T08:22:01.374Z,437.9231
2023-05-05T08:23:00.686Z,435.6154
2023-05-05T08:24:01.732Z,431.6923
2023-05-05T08:25:02.782Z,431.4615
2023-05-05T08:26:03.887Z,431.2308
2023-05-05T08:27:04.872Z,432.3077
2023-05-05T08:28:05.866Z,433.9231
2023-05-05T08:29:06.872Z,433.0000
2023-05-05T08:30:07.981Z,433.0769
2023-05-05T08:31:09.011Z,438.6923
2023-05-05T08:32:10.020Z,409.6154
2023-05-05T08:33:11.094Z,417.8462
2023-05-05T08:34:12.088Z,439.0000
2023-05-05T08:35:13.359Z,437.3846
2023-05-05T08:36:14.185Z,438.6154
2023-05-05T08:37:15.206Z,440.2308
2023-05-05T08:38:16.223Z,442.1538
2023-05-05T08:39:17.316Z,444.0000
2023-05-05T08:40:18.321Z,442.3077
2023-05-05T08:41:19.345Z,440.5385
2023-05-05T08:42:35.605Z,440.6154
2023-05-05T08:43:21.331Z,444.7692
2023-05-05T08:44:22.401Z,448.7692
2023-05-05T08:45:23.481Z,444.4615
2023-05-05T08:46:24.523Z,443.0000
2023-05-05T08:47:25.527Z,441.0000
2023-05-05T08:48:26.596Z,436.0000
2023-05-05T08:49:27.536Z,437.7692
2023-05-05T08:50:28.647Z,438.0000
2023-05-05T08:51:29.674Z,425.5385
2023-05-05T08:52:30.741Z,423.3846
2023-05-05T08:53:31.716Z,431.5385
2023-05-05T08:54:32.738Z,440.0769
2023-05-05T08:55:33.794Z,425.5385
2023-05-05T08:56:34.847Z,430.1538
2023-05-05T08:57:35.917Z,432.6154
2023-05-05T08:58:36.910Z,434.9231
2023-05-05T08:59:37.908Z,438.3846
2023-05-05T09:00:39.028Z,440.6154
2023-05-05T09:01:40.042Z,443.9231
2023-05-05T09:02:41.105Z,443.9231
2023-05-05T09:03:42.311Z,440.9231
2023-05-05T09:04:43.093Z,439.7692
2023-05-05T09:05:44.151Z,441.3077
2023-05-05T09:06:45.234Z,438.8462
2023-05-05T09:07:46.233Z,438.6154
2023-05-05T09:08:47.235Z,438.3077
2023-05-05T09:09:48.246Z,439.1538
2023-05-05T09:10:49.435Z,443.0000
2023-05-05T09:11:50.447Z,461.0000
2023-05-05T09:12:51.702Z,455.6154
2023-05-05T09:13:52.469Z,446.7692
2023-05-05T09:14:53.552Z,444.1538
2023-05-05T09:15:54.565Z,436.3846
2023-05-05T09:16:55.601Z,434.3077
2023-05-05T09:17:56.636Z,434.7692
2023-05-05T09:18:57.654Z,432.1538
2023-05-05T09:19:58.672Z,432.2308
2023-05-05T09:20:59.826Z,433.9231
2023-05-05T09:22:00.804Z,434.6154
2023-05-05T09:23:01.790Z,433.9231
2023-05-05T09:24:07.824Z,434.3077
2023-05-05T09:25:03.902Z,433.6154
2023-05-05T09:26:04.954Z,431.0769
2023-05-05T09:27:05.976Z,432.9231
2023-05-05T09:28:07.008Z,433.6923
2023-05-05T09:29:08.006Z,435.3846
2023-05-05T09:30:09.037Z,437.5385
2023-05-05T09:31:10.149Z,437.9231
2023-05-05T09:32:11.241Z,433.0769
2023-05-05T09:33:12.177Z,431.3846
2023-05-05T09:34:13.185Z,432.0000
2023-05-05T09:35:14.253Z,431.4615
2023-05-05T09:36:15.280Z,436.5385
2023-05-05T09:37:16.285Z,439.3846
2023-05-05T09:38:17.338Z,442.0769
2023-05-05T09:39:18.346Z,441.6154
2023-05-05T09:40:19.533Z,445.6154
2023-05-05T09:41:20.441Z,446.6923
2023-05-05T09:42:21.540Z,445.6154
2023-05-05T09:43:22.496Z,441.3077
2023-05-05T09:44:23.497Z,433.6923
2023-05-05T09:45:24.516Z,430.9231
2023-05-05T09:46:25.726Z,430.6923
2023-05-05T09:47:29.904Z,424.6154
2023-05-05T09:48:27.736Z,432.6154
2023-05-05T09:49:28.653Z,434.1538
2023-05-05T09:50:29.730Z,435.6923
2023-05-05T09:51:30.753Z,437.5385
2023-05-05T09:52:31.831Z,435.0000
2023-05-05T09:53:32.797Z,427.1538
2023-05-05T09:54:33.835Z,428.4615
2023-05-05T09:55:34.826Z,430.1538
2023-05-05T09:56:35.966Z,431.5385
2023-05-05T09:57:37.011Z,436.1538
2023-05-05T09:58:38.077Z,436.3846
2023-05-05T09:59:38.986Z,419.0000
2023-05-05T10:00:40.009Z,418.2308
2023-05-05T10:01:41.115Z,421.4615
2023-05-05T10:02:42.242Z,432.1538
2023-05-05T10:03:43.105Z,435.2308
2023-05-05T10:04:44.158Z,434.5385
2023-05-05T10:05:45.157Z,432.7692
2023-05-05T10:06:46.263Z,430.4615
2023-05-05T10:07:47.321Z,428.6923
2023-05-05T10:08:48.285Z,429.7692
2023-05-05T10:09:49.329Z,430.4615
2023-05-05T10:10:50.326Z,433.7692
2023-05-05T10:11:51.442Z,434.1538
2023-05-05T10:12:52.496Z,433.0000
2023-05-05T10:13:53.479Z,435.8462
2023-05-05T10:14:54.434Z,437.1538
2023-05-05T10:15:55.518Z,436.3077
2023-05-05T10:16:56.593Z,437.1538
2023-05-05T10:18:06.893Z,435.4615
2023-05-05T10:18:58.591Z,435.1538
2023-05-05T10:19:59.640Z,437.5385
2023-05-05T10:21:00.662Z,436.1538
2023-05-05T10:22:01.740Z,435.6154
2023-05-05T10:23:02.715Z,437.3077
2023-05-05T10:24:03.661Z,435.4615
2023-05-05T10:25:04.724Z,426.1538
2023-05-05T10:26:05.725Z,422.7692
2023-05-05T10:27:06.808Z,425.0000
2023-05-05T10:28:07.843Z,426.3846
2023-05-05T10:29:08.868Z,428.3846
2023-05-05T10:30:10.110Z,416.9231
2023-05-05T10:31:24.587Z,416.4615
2023-05-05T10:32:33.545Z,419.4615
2023-05-05T10:33:30.212Z,422.3846
2023-05-05T10:34:14.107Z,424.3077
2023-05-05T10:35:15.074Z,427.1538
2023-05-05T10:36:16.136Z,430.1538
2023-05-05T10:37:17.125Z,424.7692
2023-05-05T10:38:18.160Z,420.8462
2023-05-05T10:39:19.336Z,417.8462
2023-05-05T10:40:20.377Z,419.8462
2023-05-05T10:41:21.334Z,424.4615
2023-05-05T10:42:22.424Z,423.0769
2023-05-05T10:43:23.540Z,421.2308
2023-05-05T10:44:24.572Z,422.6923
2023-05-05T10:45:25.627Z,424.6923
2023-05-05T10:46:26.770Z,429.2308
2023-05-05T10:47:27.590Z,417.4615
2023-05-05T10:48:28.700Z,409.3077
2023-05-05T10:49:29.734Z,407.3077
2023-05-05T10:50:30.780Z,411.9231
2023-05-05T10:51:40.459Z,415.6923
2023-05-05T10:52:32.789Z,420.0000
2023-05-05T10:53:33.825Z,425.1538
2023-05-05T10:54:37.173Z,427.4615
2023-05-05T10:55:35.879Z,429.4615
2023-05-05T10:56:36.940Z,431.3077
2023-05-05T10:57:37.976Z,428.2308
2023-05-05T10:58:47.477Z,427.7692
2023-05-05T10:59:40.181Z,424.9231
2023-05-05T11:00:41.077Z,422.8462
2023-05-05T11:01:42.145Z,424.7692
2023-05-05T11:02:43.212Z,423.3846
2023-05-05T11:03:44.206Z,421.3077
2023-05-05T11:04:45.237Z,423.2308
2023-05-05T11:05:46.195Z,424.6923
2023-05-05T11:06:47.300Z,422.4615
2023-05-05T11:07:48.282Z,422.2308
2023-05-05T11:08:49.354Z,425.5385
2023-05-05T11:09:50.479Z,423.5385
2023-05-05T11:10:51.420Z,420.0000
2023-05-05T11:11:52.446Z,419.6154
2023-05-05T11:12:53.521Z,422.3077
2023-05-05T11:13:54.530Z,422.7692
2023-05-05T11:14:55.621Z,424.7692
2023-05-05T11:15:56.536Z,424.8462
2023-05-05T11:16:57.640Z,423.1538
2023-05-05T11:17:58.675Z,422.3077
2023-05-05T11:18:59.747Z,423.9231
2023-05-05T11:20:00.753Z,426.3846
2023-05-05T11:21:01.798Z,426.5385
2023-05-05T11:22:02.772Z,421.1538
2023-05-05T11:23:03.829Z,416.5385
2023-05-05T11:24:04.884Z,427.3077
2023-05-05T11:25:05.917Z,435.2308
2023-05-05T11:26:06.969Z,443.3077
2023-05-05T11:27:07.891Z,439.9231
2023-05-05T11:28:09.065Z,433.1538
2023-05-05T11:29:10.046Z,430.3077
2023-05-05T11:30:11.343Z,428.6923
2023-05-05T11:31:12.077Z,433.4615
2023-05-05T11:32:13.106Z,432.1538
2023-05-05T11:33:14.091Z,428.0769
2023-05-05T11:34:15.193Z,421.8462
2023-05-05T11:35:16.242Z,422.3077
2023-05-05T11:36:17.294Z,423.8462
2023-05-05T11:37:18.235Z,420.5385
2023-05-05T11:38:19.302Z,412.0000
2023-05-05T11:39:20.340Z,405.3077
2023-05-05T11:40:21.399Z,412.3077
2023-05-05T11:41:22.360Z,422.6923
2023-05-05T11:42:23.434Z,421.4615
2023-05-05T11:43:24.476Z,420.7692
2023-05-05T11:44:25.526Z,424.3846
2023-05-05T11:45:26.669Z,425.6923
2023-05-05T11:46:27.593Z,421.8462
2023-05-05T11:47:28.602Z,422.2308
2023-05-05T11:48:29.632Z,426.1538
2023-05-05T11:49:30.720Z,425.9231
2023-05-05T11:50:31.715Z,430.6154
2023-05-05T11:51:32.688Z,431.6154
2023-05-05T11:52:33.768Z,432.8462
2023-05-05T11:53:34.781Z,434.0769
2023-05-05T11:54:35.856Z,429.5385
2023-05-05T11:55:36.907Z,430.3846
2023-05-05T11:56:37.868Z,429.6154